createdAt,value
2024-04-21T00:00:36.502Z,65.16
2024-04-21T00:03:06.324Z,65.09
2024-04-21T00:05:33.294Z,65.23
2024-04-21T00:08:06.126Z,64.96
2024-04-21T00:10:33.021Z,65.22
2024-04-21T00:13:02.975Z,65.17
2024-04-21T00:15:29.862Z,65.13
2024-04-21T00:17:59.662Z,65.57
2024-04-21T00:20:27.016Z,65.92
2024-04-21T00:22:56.536Z,65.43
2024-04-21T00:25:26.188Z,66.29
2024-04-21T00:27:56.083Z,66.30
2024-04-21T00:30:23.005Z,65.98
2024-04-21T00:32:52.561Z,67.31
2024-04-21T00:35:19.504Z,67.00
2024-04-21T00:37:49.505Z,66.92
2024-04-21T00:40:17.987Z,65.49
2024-04-21T00:43:02.551Z,65.00
2024-04-21T00:45:35.672Z,64.27
2024-04-21T00:48:09.086Z,65.31
2024-04-21T00:50:37.510Z,65.39
2024-04-21T00:53:07.925Z,65.26
2024-04-21T00:55:35.253Z,65.05
2024-04-21T00:58:09.041Z,63.95
2024-04-21T01:00:37.142Z,64.78
2024-04-21T01:03:07.893Z,64.26
2024-04-21T01:05:34.978Z,64.48
2024-04-21T01:08:04.696Z,64.08
2024-04-21T01:10:31.982Z,63.95
2024-04-21T01:13:02.035Z,64.02
2024-04-21T01:15:31.721Z,63.64
2024-04-21T01:18:01.396Z,63.57
2024-04-21T01:20:29.633Z,64.23
2024-04-21T01:23:02.170Z,65.25
2024-04-21T01:25:29.440Z,65.95
2024-04-21T01:27:59.166Z,66.81
2024-04-21T01:30:25.998Z,66.77
2024-04-21T01:32:55.957Z,65.41
2024-04-21T01:35:23.242Z,65.26
2024-04-21T01:37:52.669Z,66.33
2024-04-21T01:40:22.491Z,65.60
2024-04-21T01:42:52.469Z,64.94
2024-04-21T01:45:19.485Z,65.82
2024-04-21T01:47:49.014Z,64.61
2024-04-21T01:50:16.374Z,65.50
2024-04-21T01:52:45.794Z,65.56
2024-04-21T01:55:14.296Z,66.37
2024-04-21T01:57:46.964Z,65.75
2024-04-21T02:00:14.039Z,66.13
2024-04-21T02:02:43.728Z,66.46
2024-04-21T02:05:10.988Z,66.58
2024-04-21T02:07:40.892Z,66.33
2024-04-21T02:10:08.150Z,67.10
2024-04-21T02:12:37.911Z,67.39
2024-04-21T02:15:08.452Z,67.37
2024-04-21T02:17:38.623Z,67.01
2024-04-21T02:20:06.437Z,66.17
2024-04-21T02:22:36.138Z,66.37
2024-04-21T02:25:03.225Z,66.49
2024-04-21T02:27:32.811Z,65.98
2024-04-21T02:29:59.654Z,65.78
2024-04-21T02:32:31.933Z,65.37
2024-04-21T02:35:00.412Z,65.39
2024-04-21T02:37:30.329Z,65.82
2024-04-21T02:39:57.279Z,66.04
2024-04-21T02:42:26.929Z,67.30
2024-04-21T02:44:53.891Z,66.84
2024-04-21T02:47:23.764Z,67.71
2024-04-21T02:49:53.593Z,67.88
2024-04-21T02:52:23.005Z,67.05
2024-04-21T02:54:50.046Z,67.12
2024-04-21T02:57:19.590Z,66.72
2024-04-21T02:59:46.458Z,66.74
2024-04-21T03:02:16.058Z,66.73
2024-04-21T03:04:42.906Z,67.10
2024-04-21T03:07:15.411Z,67.34
2024-04-21T03:09:43.145Z,67.41
2024-04-21T03:12:13.100Z,67.59
2024-04-21T03:14:40.081Z,66.89
2024-04-21T03:17:09.621Z,67.51
2024-04-21T03:19:36.446Z,67.38
2024-04-21T03:22:06.174Z,69.24
2024-04-21T03:24:37.178Z,68.33
2024-04-21T03:27:07.121Z,67.81
2024-04-21T03:29:34.012Z,68.66
2024-04-21T03:32:03.679Z,68.70
2024-04-21T03:34:30.521Z,68.24
2024-04-21T03:37:00.035Z,68.28
2024-04-21T03:39:31.042Z,68.05
2024-04-21T03:42:03.325Z,68.03
2024-04-21T03:44:33.372Z,67.85
2024-04-21T03:47:00.585Z,66.96
2024-04-21T03:49:30.406Z,67.55
2024-04-21T03:51:57.394Z,67.05
2024-04-21T03:54:27.262Z,66.97
2024-04-21T03:56:54.041Z,66.74
2024-04-21T03:59:26.232Z,67.07
2024-04-21T04:01:53.187Z,67.25
2024-04-21T04:04:23.178Z,67.69
2024-04-21T04:06:50.821Z,66.63
2024-04-21T04:09:20.662Z,67.14
2024-04-21T04:11:47.512Z,66.70
2024-04-21T04:14:17.576Z,67.16
2024-04-21T04:16:47.163Z,66.99
2024-04-21T04:19:17.275Z,67.06
2024-04-21T04:21:44.186Z,66.41
2024-04-21T04:24:13.993Z,66.94
2024-04-21T04:26:40.795Z,67.76
2024-04-21T04:29:10.214Z,66.53
2024-04-21T04:31:37.005Z,65.74
2024-04-21T04:34:09.442Z,65.74
2024-04-21T04:36:36.393Z,65.73
2024-04-21T04:39:06.563Z,64.94
2024-04-21T04:41:33.447Z,65.24
2024-04-21T04:44:03.499Z,64.93
2024-04-21T04:46:30.700Z,65.46
2024-04-21T04:49:00.457Z,65.30
2024-04-21T04:51:30.814Z,65.00
2024-04-21T04:54:00.650Z,64.39
2024-04-21T04:56:27.706Z,64.76
2024-04-21T04:58:57.484Z,64.41
2024-04-21T05:01:24.585Z,63.96
2024-04-21T05:03:54.444Z,63.42
2024-04-21T05:06:21.281Z,63.20
2024-04-21T05:08:53.780Z,62.33
2024-04-21T05:11:20.700Z,62.94
2024-04-21T05:13:50.204Z,61.37
2024-04-21T05:16:17.087Z,60.25
2024-04-21T05:18:46.655Z,59.76
2024-04-21T05:21:14.566Z,60.40
2024-04-21T05:23:44.077Z,60.18
2024-04-21T05:26:13.524Z,60.70
2024-04-21T05:28:48.720Z,61.61
2024-04-21T05:31:17.149Z,63.62
2024-04-21T05:33:47.020Z,64.80
2024-04-21T05:36:15.015Z,64.60
2024-04-21T05:38:44.427Z,63.58
2024-04-21T05:41:13.951Z,64.07
2024-04-21T05:43:43.394Z,63.08
2024-04-21T05:46:10.316Z,62.01
2024-04-21T05:48:39.769Z,61.54
2024-04-21T05:51:06.919Z,60.08
2024-04-21T05:53:36.564Z,59.95
2024-04-21T05:56:04.418Z,59.43
2024-04-21T05:58:36.651Z,60.31
2024-04-21T06:01:04.509Z,61.37
2024-04-21T06:03:34.274Z,62.88
2024-04-21T06:06:01.159Z,62.51
2024-04-21T06:08:30.651Z,61.26
2024-04-21T06:10:57.604Z,61.94
2024-04-21T06:13:27.368Z,60.89
2024-04-21T06:15:57.159Z,60.03
2024-04-21T06:18:27.153Z,58.93
2024-04-21T06:20:54.078Z,58.50
2024-04-21T06:23:23.784Z,59.92
2024-04-21T06:25:51.279Z,60.29
2024-04-21T06:28:23.851Z,61.93
2024-04-21T06:30:50.784Z,63.16
2024-04-21T06:33:27.626Z,63.43
2024-04-21T06:35:55.915Z,62.94
2024-04-21T06:38:25.593Z,62.81
2024-04-21T06:40:53.837Z,65.36
2024-04-21T06:43:23.364Z,63.25
2024-04-21T06:45:54.368Z,61.30
2024-04-21T06:48:26.927Z,61.91
2024-04-21T06:50:53.750Z,63.65
2024-04-21T06:53:23.839Z,63.31
2024-04-21T06:55:50.725Z,60.05
2024-04-21T06:58:21.162Z,62.19
2024-04-21T07:00:48.163Z,62.58
2024-04-21T07:03:18.583Z,62.53
2024-04-21T07:05:50.708Z,61.38
2024-04-21T07:08:20.156Z,58.68
2024-04-21T07:10:50.639Z,58.13
2024-04-21T07:13:20.433Z,55.86
2024-04-21T07:15:47.370Z,55.36
2024-04-21T07:18:17.162Z,56.44
2024-04-21T07:20:48.426Z,57.21
2024-04-21T07:23:17.831Z,56.46
2024-04-21T07:25:44.772Z,58.18
2024-04-21T07:28:14.223Z,58.61
2024-04-21T07:30:42.285Z,59.04
2024-04-21T07:33:12.283Z,56.85
2024-04-21T07:35:40.262Z,57.68
2024-04-21T07:38:12.842Z,57.56
2024-04-21T07:40:39.715Z,58.83
2024-04-21T07:43:10.582Z,58.77
2024-04-21T07:45:37.620Z,57.68
2024-04-21T07:48:08.025Z,58.01
2024-04-21T07:50:35.518Z,56.38
2024-04-21T07:53:05.365Z,57.24
2024-04-21T07:55:34.926Z,57.73
2024-04-21T07:58:05.982Z,57.95
2024-04-21T08:00:32.910Z,58.07
2024-04-21T08:03:02.758Z,57.13
2024-04-21T08:05:29.772Z,57.73
2024-04-21T08:07:59.198Z,56.36
2024-04-21T08:10:26.353Z,58.88
2024-04-21T08:12:58.433Z,59.19
2024-04-21T08:15:25.446Z,59.74
2024-04-21T08:17:55.111Z,59.25
2024-04-21T08:20:21.936Z,58.07
2024-04-21T08:22:51.545Z,60.38
2024-04-21T08:25:18.394Z,60.71
2024-04-21T08:27:50.402Z,61.60
2024-04-21T08:30:19.884Z,60.75
2024-04-21T08:32:52.256Z,60.80
2024-04-21T08:35:19.142Z,61.24
2024-04-21T08:37:48.772Z,61.65
2024-04-21T08:40:16.166Z,61.40
2024-04-21T08:42:48.388Z,62.17
2024-04-21T08:45:21.405Z,61.50
2024-04-21T08:47:51.436Z,60.75
2024-04-21T08:50:20.986Z,59.40
2024-04-21T08:52:51.194Z,59.84
2024-04-21T08:55:19.924Z,58.88
2024-04-21T08:57:50.207Z,58.26
2024-04-21T09:00:21.189Z,57.66
2024-04-21T09:02:52.260Z,59.24
2024-04-21T09:05:19.495Z,60.22
2024-04-21T09:07:49.781Z,58.65
2024-04-21T09:10:16.658Z,58.62
2024-04-21T09:12:47.163Z,58.65
2024-04-21T09:15:13.961Z,59.53
2024-04-21T09:17:46.411Z,57.53
2024-04-21T09:20:13.478Z,58.00
2024-04-21T09:22:43.496Z,57.06
2024-04-21T09:25:12.104Z,57.67
2024-04-21T09:27:43.725Z,57.68
2024-04-21T09:30:11.075Z,59.16
2024-04-21T09:32:41.177Z,58.69
2024-04-21T09:35:11.993Z,55.72
2024-04-21T09:37:47.493Z,57.54
2024-04-21T09:40:16.019Z,56.57
2024-04-21T09:42:47.928Z,55.52
2024-04-21T09:45:16.678Z,53.37
2024-04-21T09:47:48.129Z,50.00
2024-04-21T09:50:18.788Z,48.17
2024-04-21T09:52:52.305Z,48.49
2024-04-21T09:55:20.427Z,47.78
2024-04-21T09:58:00.044Z,48.43
2024-04-21T10:00:31.035Z,51.16
2024-04-21T10:03:04.394Z,52.34
2024-04-21T10:05:35.391Z,52.16
2024-04-21T10:08:06.040Z,51.28
2024-04-21T10:10:37.266Z,49.83
2024-04-21T10:13:12.551Z,51.09
2024-04-21T10:15:39.596Z,50.46
2024-04-21T10:18:11.567Z,50.36
2024-04-21T10:20:43.435Z,48.09
2024-04-21T10:23:13.347Z,48.10
2024-04-21T10:25:41.870Z,47.48
2024-04-21T10:28:13.037Z,47.41
2024-04-21T10:30:40.958Z,44.50
2024-04-21T10:33:14.208Z,44.32
2024-04-21T10:35:43.717Z,44.54
2024-04-21T10:38:15.790Z,41.66
2024-04-21T10:40:47.185Z,42.88
2024-04-21T10:43:22.029Z,43.32
2024-04-21T10:45:49.222Z,45.10
2024-04-21T10:48:20.341Z,45.30
2024-04-21T10:50:50.813Z,46.67
2024-04-21T10:53:20.844Z,44.70
2024-04-21T10:55:54.762Z,43.29
2024-04-21T10:58:25.114Z,43.74
2024-04-21T11:00:52.189Z,43.53
2024-04-21T11:03:21.761Z,42.89
2024-04-21T11:06:03.344Z,41.59
2024-04-21T11:08:34.050Z,40.76
2024-04-21T11:11:01.722Z,38.98
2024-04-21T11:13:31.999Z,40.66
2024-04-21T11:15:59.265Z,40.58
2024-04-21T11:18:28.908Z,41.41
2024-04-21T11:20:58.490Z,42.64
2024-04-21T11:23:28.013Z,42.34
2024-04-21T11:25:56.449Z,43.30
2024-04-21T11:28:27.977Z,43.18
2024-04-21T11:31:05.936Z,42.53
2024-04-21T11:33:36.872Z,41.90
2024-04-21T11:36:09.663Z,40.95
2024-04-21T11:38:40.507Z,41.87
2024-04-21T11:41:07.561Z,41.42
2024-04-21T11:43:37.760Z,43.73
2024-04-21T11:46:05.307Z,42.98
2024-04-21T11:48:37.538Z,43.57
2024-04-21T11:51:07.436Z,44.37
2024-04-21T11:53:37.049Z,43.16
2024-04-21T11:56:04.585Z,42.34
2024-04-21T11:58:35.539Z,41.98
2024-04-21T12:01:03.207Z,39.49
2024-04-21T12:03:33.383Z,40.20
2024-04-21T12:06:01.003Z,40.15
2024-04-21T12:08:33.178Z,40.09
2024-04-21T12:11:00.367Z,38.26
2024-04-21T12:13:30.080Z,37.90
2024-04-21T12:15:56.997Z,39.44
2024-04-21T12:18:26.635Z,38.57
2024-04-21T12:20:53.775Z,37.90
2024-04-21T12:23:23.828Z,36.38
2024-04-21T12:25:53.236Z,38.24
2024-04-21T12:28:23.369Z,39.57
2024-04-21T12:30:50.618Z,40.15
2024-04-21T12:33:20.180Z,39.13
2024-04-21T12:35:47.567Z,39.02
2024-04-21T12:38:17.217Z,38.34
2024-04-21T12:40:44.203Z,39.66
2024-04-21T12:43:16.438Z,48.42
2024-04-21T12:45:43.489Z,49.44
2024-04-21T12:48:14.903Z,47.63
2024-04-21T12:50:43.764Z,48.37
2024-04-21T12:53:14.195Z,45.05
2024-04-21T12:55:43.657Z,43.74
2024-04-21T12:58:13.064Z,41.59
2024-04-21T13:00:43.475Z,41.03
2024-04-21T13:03:17.591Z,39.99
2024-04-21T13:05:47.521Z,39.37
2024-04-21T13:08:16.925Z,39.32
2024-04-21T13:10:43.910Z,39.00
2024-04-21T13:13:13.727Z,36.95
2024-04-21T13:15:43.340Z,36.04
2024-04-21T13:18:13.129Z,35.29
2024-04-21T13:20:40.034Z,37.13
2024-04-21T13:23:09.911Z,36.83
2024-04-21T13:25:37.045Z,38.09
2024-04-21T13:28:07.585Z,38.63
2024-04-21T13:30:36.036Z,38.51
2024-04-21T13:33:08.738Z,39.75
2024-04-21T13:35:36.411Z,41.06
2024-04-21T13:38:07.901Z,39.69
2024-04-21T13:40:34.745Z,39.77
2024-04-21T13:43:04.376Z,38.97
2024-04-21T13:45:31.311Z,37.65
2024-04-21T13:48:01.074Z,35.78
2024-04-21T13:50:30.876Z,37.55
2024-04-21T13:53:01.212Z,37.14
2024-04-21T13:55:28.142Z,37.05
2024-04-21T13:57:57.640Z,37.07
2024-04-21T14:00:25.391Z,37.71
2024-04-21T14:02:56.285Z,42.41
2024-04-21T14:05:23.231Z,47.13
2024-04-21T14:08:03.097Z,56.19
2024-04-21T14:10:30.196Z,61.14
2024-04-21T14:13:00.162Z,60.03
2024-04-21T14:15:27.015Z,58.57
2024-04-21T14:17:56.813Z,58.51
2024-04-21T14:20:23.636Z,58.73
2024-04-21T14:22:55.725Z,55.43
2024-04-21T14:25:22.649Z,52.13
2024-04-21T14:27:52.634Z,51.90
2024-04-21T14:30:19.548Z,50.02
2024-04-21T14:32:49.009Z,47.26
2024-04-21T14:35:17.031Z,47.45
2024-04-21T14:37:46.917Z,45.94
2024-04-21T14:40:17.015Z,43.42
2024-04-21T14:42:47.226Z,42.81
2024-04-21T14:45:14.064Z,42.24
2024-04-21T14:47:45.674Z,41.84
2024-04-21T14:50:12.926Z,40.35
2024-04-21T14:52:46.874Z,39.88
2024-04-21T14:55:17.678Z,39.34
2024-04-21T14:57:48.658Z,38.26
2024-04-21T15:00:16.052Z,38.25
2024-04-21T15:02:45.547Z,38.40
2024-04-21T15:05:12.924Z,37.22
2024-04-21T15:07:42.750Z,36.93
2024-04-21T15:10:09.882Z,36.15
2024-04-21T15:12:42.077Z,36.53
2024-04-21T15:15:10.105Z,36.36
2024-04-21T15:17:40.013Z,33.74
2024-04-21T15:20:07.857Z,34.88
2024-04-21T15:22:39.058Z,35.15
2024-04-21T15:25:06.602Z,35.93
2024-04-21T15:27:36.657Z,35.32
2024-04-21T15:30:10.212Z,35.57
2024-04-21T15:32:42.101Z,36.11
2024-04-21T15:35:09.382Z,35.53
2024-04-21T15:37:39.674Z,34.96
2024-04-21T15:40:07.303Z,34.33
2024-04-21T15:42:36.889Z,34.25
2024-04-21T15:45:08.630Z,35.17
2024-04-21T15:47:38.705Z,34.80
2024-04-21T15:50:06.397Z,35.13
2024-04-21T15:52:36.177Z,35.84
2024-04-21T15:55:07.279Z,35.19
2024-04-21T15:57:37.012Z,35.23
2024-04-21T16:00:05.360Z,34.96
2024-04-21T16:02:40.283Z,35.59
2024-04-21T16:05:08.653Z,37.04
2024-04-21T16:07:38.376Z,36.69
2024-04-21T16:10:05.945Z,36.76
2024-04-21T16:12:39.375Z,37.27
2024-04-21T16:15:08.584Z,37.37
2024-04-21T16:17:40.817Z,38.23
2024-04-21T16:20:09.556Z,36.12
2024-04-21T16:22:39.269Z,36.06
2024-04-21T16:25:08.578Z,35.43
2024-04-21T16:27:38.041Z,37.20
2024-04-21T16:30:06.019Z,36.98
2024-04-21T16:32:36.012Z,36.65
2024-04-21T16:35:07.242Z,36.01
2024-04-21T16:37:37.747Z,36.36
2024-04-21T16:40:06.413Z,36.89
2024-04-21T16:42:36.611Z,35.82
2024-04-21T16:45:04.178Z,34.80
2024-04-21T16:47:38.136Z,36.00
2024-04-21T16:50:09.917Z,35.84
2024-04-21T16:52:39.903Z,35.29
2024-04-21T16:55:08.173Z,35.76
2024-04-21T16:57:40.902Z,36.90
2024-04-21T17:00:09.423Z,36.83
2024-04-21T17:02:39.831Z,37.55
2024-04-21T17:05:10.614Z,37.92
2024-04-21T17:07:42.730Z,37.95
2024-04-21T17:10:11.322Z,37.60
2024-04-21T17:12:40.926Z,37.21
2024-04-21T17:15:08.624Z,36.95
2024-04-21T17:17:40.309Z,36.91
2024-04-21T17:20:10.343Z,36.70
2024-04-21T17:22:39.916Z,37.29
2024-04-21T17:25:07.276Z,37.51
2024-04-21T17:27:37.272Z,37.31
2024-04-21T17:30:05.682Z,36.63
2024-04-21T17:32:35.885Z,36.55
2024-04-21T17:35:03.065Z,37.34
2024-04-21T17:37:35.205Z,37.01
2024-04-21T17:40:02.382Z,38.06
2024-04-21T17:42:31.955Z,38.45
2024-04-21T17:44:58.803Z,37.92
2024-04-21T17:47:28.358Z,38.10
2024-04-21T17:49:55.184Z,38.98
2024-04-21T17:52:26.058Z,38.60
2024-04-21T17:55:04.019Z,38.81
2024-04-21T17:57:36.554Z,37.48
2024-04-21T18:00:04.273Z,38.18
2024-04-21T18:02:34.055Z,37.40
2024-04-21T18:05:01.012Z,36.97
2024-04-21T18:07:32.480Z,37.27
2024-04-21T18:10:03.764Z,37.47
2024-04-21T18:12:33.923Z,37.46
2024-04-21T18:15:01.206Z,37.64
2024-04-21T18:17:30.732Z,37.67
2024-04-21T18:19:57.600Z,37.95
2024-04-21T18:22:28.221Z,38.37
2024-04-21T18:24:57.359Z,38.56
2024-04-21T18:27:29.644Z,38.72
2024-04-21T18:29:58.605Z,38.31
2024-04-21T18:32:31.242Z,37.95
2024-04-21T18:34:58.457Z,37.42
2024-04-21T18:37:27.929Z,37.64
2024-04-21T18:39:55.051Z,38.19
2024-04-21T18:42:24.489Z,38.27
2024-04-21T18:44:55.576Z,38.40
2024-04-21T18:47:28.829Z,37.97
2024-04-21T18:49:56.371Z,38.99
2024-04-21T18:52:26.031Z,39.05
2024-04-21T18:54:52.969Z,38.43
2024-04-21T18:57:22.642Z,38.47
2024-04-21T18:59:49.527Z,38.76
2024-04-21T19:02:21.549Z,38.87
2024-04-21T19:04:48.824Z,39.43
2024-04-21T19:07:19.022Z,38.81
2024-04-21T19:09:46.553Z,38.96
2024-04-21T19:12:17.381Z,39.20
2024-04-21T19:14:44.709Z,39.26
2024-04-21T19:17:14.902Z,39.39
2024-04-21T19:19:45.149Z,39.38
2024-04-21T19:22:15.176Z,38.84
2024-04-21T19:24:42.100Z,38.96
2024-04-21T19:27:11.770Z,39.53
2024-04-21T19:29:38.588Z,39.40
2024-04-21T19:32:11.291Z,38.95
2024-04-21T19:34:38.125Z,38.82
2024-04-21T19:37:10.435Z,38.69
2024-04-21T19:39:37.265Z,38.97
2024-04-21T19:42:07.574Z,39.98
2024-04-21T19:44:34.748Z,39.22
2024-04-21T19:47:04.741Z,39.13
2024-04-21T19:49:31.770Z,38.65
2024-04-21T19:52:01.318Z,39.07
2024-04-21T19:54:31.735Z,41.65
2024-04-21T19:57:02.100Z,44.07
2024-04-21T19:59:28.896Z,41.26
2024-04-21T20:01:58.455Z,40.90
2024-04-21T20:04:25.759Z,40.36
2024-04-21T20:06:55.332Z,42.39
2024-04-21T20:09:22.209Z,41.32
2024-04-21T20:11:54.560Z,40.55
2024-04-21T20:14:23.514Z,39.88
2024-04-21T20:17:09.472Z,39.44
2024-04-21T20:19:38.975Z,41.71
2024-04-21T20:22:08.575Z,45.43
2024-04-21T20:24:38.128Z,43.07
2024-04-21T20:27:07.701Z,41.28
2024-04-21T20:29:37.409Z,44.71
2024-04-21T20:32:04.824Z,43.07
2024-04-21T20:34:34.346Z,45.61
2024-04-21T20:37:01.399Z,45.26
2024-04-21T20:39:30.925Z,43.24
2024-04-21T20:41:57.867Z,41.42
2024-04-21T20:44:29.902Z,40.88
2024-04-21T20:46:56.797Z,46.23
2024-04-21T20:49:26.535Z,43.91
2024-04-21T20:51:53.346Z,45.92
2024-04-21T20:54:22.964Z,47.35
2024-04-21T20:56:49.907Z,46.10
2024-04-21T20:59:19.659Z,46.16
2024-04-21T21:01:49.448Z,43.97
2024-04-21T21:04:19.071Z,42.83
2024-04-21T21:06:45.894Z,42.75
2024-04-21T21:09:15.338Z,43.59
2024-04-21T21:11:42.192Z,43.67
2024-04-21T21:14:11.836Z,41.50
2024-04-21T21:16:38.747Z,42.12
2024-04-21T21:19:11.017Z,41.23
2024-04-21T21:21:37.813Z,41.59
2024-04-21T21:24:07.836Z,43.55
2024-04-21T21:26:34.967Z,46.67
2024-04-21T21:29:04.440Z,48.56
2024-04-21T21:31:31.564Z,49.49
2024-04-21T21:34:01.101Z,50.01
2024-04-21T21:36:30.680Z,50.34
2024-04-21T21:39:02.521Z,46.37
2024-04-21T21:41:29.653Z,45.29
2024-04-21T21:43:59.071Z,45.25
2024-04-21T21:46:26.089Z,45.42
2024-04-21T21:48:55.560Z,45.59
2024-04-21T21:51:22.394Z,45.83
2024-04-21T21:53:54.481Z,45.38
2024-04-21T21:56:21.281Z,45.54
2024-04-21T21:58:50.885Z,45.09
2024-04-21T22:01:17.814Z,45.22
2024-04-21T22:03:47.778Z,45.15
2024-04-21T22:06:14.616Z,45.73
2024-04-21T22:08:44.150Z,45.30
2024-04-21T22:11:13.792Z,45.46
2024-04-21T22:13:43.346Z,47.27
2024-04-21T22:16:12.147Z,46.72
2024-04-21T22:18:43.499Z,46.87
2024-04-21T22:21:10.376Z,47.15
2024-04-21T22:23:39.774Z,49.63
2024-04-21T22:26:06.668Z,51.20
2024-04-21T22:28:38.849Z,51.60
2024-04-21T22:31:05.894Z,52.34
2024-04-21T22:33:40.913Z,51.98
2024-04-21T22:36:08.343Z,51.77
2024-04-21T22:38:38.642Z,51.70
2024-04-21T22:41:05.695Z,52.22
2024-04-21T22:43:38.383Z,52.78
2024-04-21T22:46:06.524Z,52.77
2024-04-21T22:48:37.656Z,52.63
2024-04-21T22:51:05.797Z,54.30
2024-04-21T22:53:35.397Z,54.39
2024-04-21T22:56:02.301Z,54.38
2024-04-21T22:58:32.097Z,54.64
2024-04-21T23:01:06.702Z,55.08
2024-04-21T23:03:37.061Z,54.40
2024-04-21T23:06:04.784Z,54.26
2024-04-21T23:08:34.276Z,55.60
2024-04-21T23:11:01.832Z,54.62
2024-04-21T23:13:31.617Z,54.85
2024-04-21T23:15:59.454Z,55.70
2024-04-21T23:18:31.627Z,56.18
2024-04-21T23:20:58.461Z,56.81
2024-04-21T23:23:27.960Z,56.77
2024-04-21T23:25:54.819Z,57.47
2024-04-21T23:28:24.566Z,57.61
2024-04-21T23:30:51.427Z,57.46
2024-04-21T23:33:20.870Z,58.47
2024-04-21T23:35:50.444Z,58.95
2024-04-21T23:38:20.332Z,59.44
2024-04-21T23:40:47.216Z,59.65
2024-04-21T23:43:16.610Z,59.52
2024-04-21T23:45:43.874Z,59.81
2024-04-21T23:48:13.481Z,58.98
2024-04-21T23:50:40.376Z,58.60
2024-04-21T23:53:12.473Z,59.77
2024-04-21T23:55:40.607Z,59.95
2024-04-21T23:58:10.280Z,59.04
